Aérodrome :
LOGIN :

S'inscrire | Disclaimer

   EN    FR    IT 

 










Légende :    VFR   VFR Marginal   IFR   IFR Intensif   IFR Très Intensif
Visi : 
Plafond : 
>= 8 km
>= 3000ft
5 à 8 km
1000 à 3000 ft
1500m à 5 km
500 à 1000 ft
800 à 1500m
200 à 500 ft
< 800m
< 200 ft
Symboles :   Orages  Brouillard  Fortes neiges  Fortes précipitations  Vent > 20 kt
SIGMETs :   Divers  Orages  Givrage  Turbulence  Onde Orograph.  Cendres Volcan.






- Altitude de l'aérodrome : 15 ft
- Code IATA : GIB


LXGB - Gibraltar

DERNIER METAR :
  • 011250Z 10008KT 9999 FEW030 SCT250 24/17 Q1015 NOSIG RMK BLU BLU

METARs EXPIRÉS :
  • 011220Z 10009KT 9999 FEW020 23/17 Q1015 NOSIG RMK BLU BLU
  • 011150Z 09007KT 9999 FEW020 22/17 Q1015 NOSIG RMK BLU BLU
  • 011120Z 10006KT 9999 FEW020 22/17 Q1015 NOSIG RMK BLU BLU
  • 011050Z 09005KT 9999 FEW020 22/17 Q1015 NOSIG RMK BLU BLU

TAF TAF LXGB
Valide du 01 à 12h jusqu'au 01 à 21h UTC


011040Z 0112/0121 09005KT 9999 FEW012
PROB40 0115/0121 7000 HZ SCT007
PROB30 0117/0121 0600 FG BKN001



MET'MAP, la Météo Aéronautique d'un coup d'oeil ! - Copyright ORBIFLY Décembre 2007 - Disclaimer

ORBIFLY MET'MAP TEAM :

Programmation & Développement : Alexandra Zaïnal
Sur une idée originale de : Baudouin d'Aumeries
Assistance à la programmation : Marc-Olivier Méhu
Soutien technique & logistique : Manuel Goepfert

Contact : metmap@orbifly.com




SOURCES & CREDITS :

   NOAA